sensor_id;sensor_type;location;lat;lon;timestamp;temperature;humidity
75113;DHT22;63692;47.338;8.520;2023-05-08T04:13:26;13.90;99.90
75113;DHT22;63692;47.338;8.520;2023-05-08T04:16:19;14.00;99.90
75113;DHT22;63692;47.338;8.520;2023-05-08T04:18:46;14.00;99.90
75113;DHT22;63692;47.338;8.520;2023-05-08T04:31:23;13.90;99.90
75113;DHT22;63692;47.338;8.520;2023-05-08T04:33:50;13.90;99.90
75113;DHT22;63692;47.338;8.520;2023-05-08T04:50:01;13.90;99.90
75113;DHT22;63692;47.338;8.520;2023-05-08T04:54:54;13.90;99.90
75113;DHT22;63692;47.338;8.520;2023-05-08T04:57:20;13.90;99.90
75113;DHT22;63692;47.338;8.520;2023-05-08T05:25:12;14.10;99.90
75113;DHT22;63692;47.338;8.520;2023-05-08T05:42:32;14.20;99.90
75113;DHT22;63692;47.338;8.520;2023-05-08T07:43:18;15.30;99.90
75113;DHT22;63692;47.338;8.520;2023-05-08T07:45:43;15.30;99.90
75113;DHT22;63692;47.338;8.520;2023-05-08T07:48:09;15.30;99.90
75113;DHT22;63692;47.338;8.520;2023-05-08T07:50:36;15.40;99.90
75113;DHT22;63692;47.338;8.520;2023-05-08T07:53:01;15.50;99.90
75113;DHT22;63692;47.338;8.520;2023-05-08T07:55:27;15.50;99.90
75113;DHT22;63692;47.338;8.520;2023-05-08T07:57:52;15.60;99.90
75113;DHT22;63692;47.338;8.520;2023-05-08T08:00:18;15.80;99.90
75113;DHT22;63692;47.338;8.520;2023-05-08T08:02:44;15.80;99.90
75113;DHT22;63692;47.338;8.520;2023-05-08T08:05:10;15.90;99.90
75113;DHT22;63692;47.338;8.520;2023-05-08T08:07:35;15.90;99.90
75113;DHT22;63692;47.338;8.520;2023-05-08T08:10:02;15.90;99.90
75113;DHT22;63692;47.338;8.520;2023-05-08T08:12:30;16.00;99.90
75113;DHT22;63692;47.338;8.520;2023-05-08T08:14:56;16.10;99.90
75113;DHT22;63692;47.338;8.520;2023-05-08T08:17:22;16.10;99.90
75113;DHT22;63692;47.338;8.520;2023-05-08T08:19:47;16.20;99.90
75113;DHT22;63692;47.338;8.520;2023-05-08T08:22:13;16.20;99.90
75113;DHT22;63692;47.338;8.520;2023-05-08T08:24:39;16.30;99.90
75113;DHT22;63692;47.338;8.520;2023-05-08T08:27:05;16.40;99.90
75113;DHT22;63692;47.338;8.520;2023-05-08T08:29:30;16.40;99.90
75113;DHT22;63692;47.338;8.520;2023-05-08T08:31:56;16.40;99.90
75113;DHT22;63692;47.338;8.520;2023-05-08T08:34:22;16.40;99.90
75113;DHT22;63692;47.338;8.520;2023-05-08T08:36:48;16.40;99.90
75113;DHT22;63692;47.338;8.520;2023-05-08T08:39:13;16.50;99.90
75113;DHT22;63692;47.338;8.520;2023-05-08T08:41:39;16.50;99.90
75113;DHT22;63692;47.338;8.520;2023-05-08T08:44:05;16.50;99.90
75113;DHT22;63692;47.338;8.520;2023-05-08T08:46:31;16.60;99.90
75113;DHT22;63692;47.338;8.520;2023-05-08T08:49:03;16.60;99.90
75113;DHT22;63692;47.338;8.520;2023-05-08T08:51:42;16.60;99.90
75113;DHT22;63692;47.338;8.520;2023-05-08T08:54:12;16.70;99.90
75113;DHT22;63692;47.338;8.520;2023-05-08T08:56:39;16.60;99.90
75113;DHT22;63692;47.338;8.520;2023-05-08T08:59:07;16.70;99.90
75113;DHT22;63692;47.338;8.520;2023-05-08T09:01:34;16.80;99.90
75113;DHT22;63692;47.338;8.520;2023-05-08T09:04:00;16.90;99.90
75113;DHT22;63692;47.338;8.520;2023-05-08T09:06:26;17.00;99.90
75113;DHT22;63692;47.338;8.520;2023-05-08T09:08:56;17.00;99.90
75113;DHT22;63692;47.338;8.520;2023-05-08T09:11:23;17.10;99.90
75113;DHT22;63692;47.338;8.520;2023-05-08T09:13:48;17.00;99.90
75113;DHT22;63692;47.338;8.520;2023-05-08T09:16:14;17.10;99.90
75113;DHT22;63692;47.338;8.520;2023-05-08T09:18:39;17.20;99.90
75113;DHT22;63692;47.338;8.520;2023-05-08T09:21:06;17.20;99.90
75113;DHT22;63692;47.338;8.520;2023-05-08T09:23:31;17.20;99.90
75113;DHT22;63692;47.338;8.520;2023-05-08T09:25:59;17.20;99.90
75113;DHT22;63692;47.338;8.520;2023-05-08T09:28:25;17.30;99.90
75113;DHT22;63692;47.338;8.520;2023-05-08T09:30:52;17.30;99.90
75113;DHT22;63692;47.338;8.520;2023-05-08T09:33:20;17.40;99.90
75113;DHT22;63692;47.338;8.520;2023-05-08T09:35:46;17.40;99.90
75113;DHT22;63692;47.338;8.520;2023-05-08T09:38:35;17.50;99.90
75113;DHT22;63692;47.338;8.520;2023-05-08T09:41:15;17.50;99.90
75113;DHT22;63692;47.338;8.520;2023-05-08T09:43:42;17.50;99.90
75113;DHT22;63692;47.338;8.520;2023-05-08T09:46:24;17.50;99.90
75113;DHT22;63692;47.338;8.520;2023-05-08T09:48:53;17.60;99.90
75113;DHT22;63692;47.338;8.520;2023-05-08T09:51:19;17.60;99.90
75113;DHT22;63692;47.338;8.520;2023-05-08T09:53:45;17.60;99.90
75113;DHT22;63692;47.338;8.520;2023-05-08T09:56:11;17.80;99.90
75113;DHT22;63692;47.338;8.520;2023-05-08T09:58:41;17.90;99.90
75113;DHT22;63692;47.338;8.520;2023-05-08T10:01:07;17.90;99.90
75113;DHT22;63692;47.338;8.520;2023-05-08T10:03:51;18.10;99.90
75113;DHT22;63692;47.338;8.520;2023-05-08T10:06:16;18.20;99.90
75113;DHT22;63692;47.338;8.520;2023-05-08T10:08:42;18.00;99.90
75113;DHT22;63692;47.338;8.520;2023-05-08T10:16:13;17.90;99.90
75113;DHT22;63692;47.338;8.520;2023-05-08T12:52:51;19.10;99.90
75113;DHT22;63692;47.338;8.520;2023-05-08T12:55:36;19.20;99.90
75113;DHT22;63692;47.338;8.520;2023-05-08T13:10:54;19.20;99.90
75113;DHT22;63692;47.338;8.520;2023-05-08T13:13:25;19.20;99.90
75113;DHT22;63692;47.338;8.520;2023-05-08T13:15:52;19.10;99.90
75113;DHT22;63692;47.338;8.520;2023-05-08T13:18:19;19.00;99.90
75113;DHT22;63692;47.338;8.520;2023-05-08T13:20:45;18.90;99.90
75113;DHT22;63692;47.338;8.520;2023-05-08T13:23:11;18.90;99.90
75113;DHT22;63692;47.338;8.520;2023-05-08T13:25:38;19.00;99.90
75113;DHT22;63692;47.338;8.520;2023-05-08T13:28:05;19.00;99.90
75113;DHT22;63692;47.338;8.520;2023-05-08T13:30:32;19.00;99.90
75113;DHT22;63692;47.338;8.520;2023-05-08T13:32:58;19.00;99.90
75113;DHT22;63692;47.338;8.520;2023-05-08T13:56:52;19.10;99.90
75113;DHT22;63692;47.338;8.520;2023-05-08T14:12:11;19.40;99.90
75113;DHT22;63692;47.338;8.520;2023-05-08T14:24:27;19.80;99.90
75113;DHT22;63692;47.338;8.520;2023-05-08T14:26:52;19.90;99.90
75113;DHT22;63692;47.338;8.520;2023-05-08T14:29:32;20.20;99.90
75113;DHT22;63692;47.338;8.520;2023-05-08T14:31:58;20.30;99.90
75113;DHT22;63692;47.338;8.520;2023-05-08T14:34:24;20.60;99.90
75113;DHT22;63692;47.338;8.520;2023-05-08T14:36:49;21.00;99.90
75113;DHT22;63692;47.338;8.520;2023-05-08T14:39:17;21.40;99.90
75113;DHT22;63692;47.338;8.520;2023-05-08T14:41:43;21.80;99.90
75113;DHT22;63692;47.338;8.520;2023-05-08T14:44:09;21.70;99.90
75113;DHT22;63692;47.338;8.520;2023-05-08T14:46:34;21.50;99.90
75113;DHT22;63692;47.338;8.520;2023-05-08T14:49:00;21.20;99.90
75113;DHT22;63692;47.338;8.520;2023-05-08T14:51:25;21.20;99.90
75113;DHT22;63692;47.338;8.520;2023-05-08T14:53:52;21.00;99.90
75113;DHT22;63692;47.338;8.520;2023-05-08T14:58:45;20.80;99.90
75113;DHT22;63692;47.338;8.520;2023-05-08T15:01:11;20.60;99.90
75113;DHT22;63692;47.338;8.520;2023-05-08T15:38:20;18.70;99.90
75113;DHT22;63692;47.338;8.520;2023-05-08T16:08:33;18.10;99.90
75113;DHT22;63692;47.338;8.520;2023-05-08T16:15:54;18.30;99.90
75113;DHT22;63692;47.338;8.520;2023-05-08T16:18:25;18.50;99.90
75113;DHT22;63692;47.338;8.520;2023-05-08T16:20:51;18.50;99.90
75113;DHT22;63692;47.338;8.520;2023-05-08T16:23:16;18.40;99.90
75113;DHT22;63692;47.338;8.520;2023-05-08T16:25:42;18.30;99.90
75113;DHT22;63692;47.338;8.520;2023-05-08T16:28:07;18.30;99.90
75113;DHT22;63692;47.338;8.520;2023-05-08T16:30:33;18.30;99.90
75113;DHT22;63692;47.338;8.520;2023-05-08T16:32:59;18.20;99.90
75113;DHT22;63692;47.338;8.520;2023-05-08T16:35:24;18.30;99.90
75113;DHT22;63692;47.338;8.520;2023-05-08T16:37:50;18.30;99.90
75113;DHT22;63692;47.338;8.520;2023-05-08T16:40:16;18.30;99.90
75113;DHT22;63692;47.338;8.520;2023-05-08T16:42:41;18.20;99.90
75113;DHT22;63692;47.338;8.520;2023-05-08T16:45:07;18.20;99.90
75113;DHT22;63692;47.338;8.520;2023-05-08T16:47:33;18.20;99.90
75113;DHT22;63692;47.338;8.520;2023-05-08T16:49:59;18.00;99.90
75113;DHT22;63692;47.338;8.520;2023-05-08T16:52:55;17.90;99.90
75113;DHT22;63692;47.338;8.520;2023-05-08T16:55:57;17.90;99.90
75113;DHT22;63692;47.338;8.520;2023-05-08T16:58:24;17.80;99.90
75113;DHT22;63692;47.338;8.520;2023-05-08T17:30:06;17.40;99.90
75113;DHT22;63692;47.338;8.520;2023-05-08T17:51:13;16.90;99.90
75113;DHT22;63692;47.338;8.520;2023-05-08T17:53:38;16.90;99.90
75113;DHT22;63692;47.338;8.520;2023-05-08T18:03:34;17.00;99.90
75113;DHT22;63692;47.338;8.520;2023-05-08T18:10:55;16.80;99.90
75113;DHT22;63692;47.338;8.520;2023-05-08T18:13:29;16.70;99.90
75113;DHT22;63692;47.338;8.520;2023-05-08T18:15:57;16.70;99.90
75113;DHT22;63692;47.338;8.520;2023-05-08T18:18:23;16.80;99.90
75113;DHT22;63692;47.338;8.520;2023-05-08T18:25:43;16.60;99.90
75113;DHT22;63692;47.338;8.520;2023-05-08T18:28:09;16.70;99.90
75113;DHT22;63692;47.338;8.520;2023-05-08T18:30:35;16.70;99.90
75113;DHT22;63692;47.338;8.520;2023-05-08T18:33:02;16.70;99.90
75113;DHT22;63692;47.338;8.520;2023-05-08T18:35:28;16.70;99.90
75113;DHT22;63692;47.338;8.520;2023-05-08T18:37:53;16.60;99.90
75113;DHT22;63692;47.338;8.520;2023-05-08T18:40:19;16.50;99.90
75113;DHT22;63692;47.338;8.520;2023-05-08T18:45:14;16.40;99.90
75113;DHT22;63692;47.338;8.520;2023-05-08T18:47:43;16.40;99.90
75113;DHT22;63692;47.338;8.520;2023-05-08T18:50:09;16.30;99.90
75113;DHT22;63692;47.338;8.520;2023-05-08T18:52:34;16.30;99.90
75113;DHT22;63692;47.338;8.520;2023-05-08T18:55:00;16.40;99.90
75113;DHT22;63692;47.338;8.520;2023-05-08T18:57:26;16.50;99.90
75113;DHT22;63692;47.338;8.520;2023-05-08T18:59:56;16.40;99.90
75113;DHT22;63692;47.338;8.520;2023-05-08T19:02:34;16.30;99.90
75113;DHT22;63692;47.338;8.520;2023-05-08T19:05:00;16.30;99.90
75113;DHT22;63692;47.338;8.520;2023-05-08T19:07:39;16.20;99.90
75113;DHT22;63692;47.338;8.520;2023-05-08T19:10:07;16.20;99.90
75113;DHT22;63692;47.338;8.520;2023-05-08T19:12:33;16.10;99.90
75113;DHT22;63692;47.338;8.520;2023-05-08T19:15:02;16.10;99.90
75113;DHT22;63692;47.338;8.520;2023-05-08T19:17:42;16.10;99.90
75113;DHT22;63692;47.338;8.520;2023-05-08T19:20:19;16.10;99.90
75113;DHT22;63692;47.338;8.520;2023-05-08T19:22:58;16.20;99.90
75113;DHT22;63692;47.338;8.520;2023-05-08T19:27:53;16.20;99.90
75113;DHT22;63692;47.338;8.520;2023-05-08T19:30:19;16.30;99.90
75113;DHT22;63692;47.338;8.520;2023-05-08T19:32:45;16.30;99.90
75113;DHT22;63692;47.338;8.520;2023-05-08T19:35:10;16.40;99.90
75113;DHT22;63692;47.338;8.520;2023-05-08T19:37:36;16.40;99.90
75113;DHT22;63692;47.338;8.520;2023-05-08T19:54:55;16.10;99.90
75113;DHT22;63692;47.338;8.520;2023-05-08T20:52:10;15.70;99.90
